sensor_id;sensor_type;location;lat;lon;timestamp;pressure;altitude;pressure_sealevel;temperature;humidity
38630;BME280;24384;51.988;4.644;2023-02-11T00:00:31;103557.38;;;6.38;81.78
38630;BME280;24384;51.988;4.644;2023-02-11T00:02:57;103560.78;;;6.34;81.99
38630;BME280;24384;51.988;4.644;2023-02-11T00:05:22;103554.63;;;6.33;81.65
38630;BME280;24384;51.988;4.644;2023-02-11T00:07:47;103543.31;;;6.34;81.93
38630;BME280;24384;51.988;4.644;2023-02-11T00:10:13;103558.16;;;6.34;81.96
38630;BME280;24384;51.988;4.644;2023-02-11T00:12:38;103551.25;;;6.37;81.90
38630;BME280;24384;51.988;4.644;2023-02-11T00:15:05;103550.19;;;6.31;81.83
38630;BME280;24384;51.988;4.644;2023-02-11T00:17:31;103559.91;;;6.35;81.91
38630;BME280;24384;51.988;4.644;2023-02-11T00:19:56;103559.16;;;6.39;81.37
38630;BME280;24384;51.988;4.644;2023-02-11T00:22:21;103552.88;;;6.32;81.62
38630;BME280;24384;51.988;4.644;2023-02-11T00:24:47;103544.22;;;6.36;81.87
38630;BME280;24384;51.988;4.644;2023-02-11T00:27:12;103541.69;;;6.39;80.96
38630;BME280;24384;51.988;4.644;2023-02-11T00:29:37;103539.75;;;6.32;81.73
38630;BME280;24384;51.988;4.644;2023-02-11T00:32:04;103536.28;;;6.33;81.57
38630;BME280;24384;51.988;4.644;2023-02-11T00:34:30;103529.06;;;6.24;82.17
38630;BME280;24384;51.988;4.644;2023-02-11T00:36:56;103521.06;;;6.20;81.73
38630;BME280;24384;51.988;4.644;2023-02-11T00:39:21;103526.41;;;6.23;81.56
38630;BME280;24384;51.988;4.644;2023-02-11T00:41:46;103515.91;;;6.23;81.67
38630;BME280;24384;51.988;4.644;2023-02-11T00:44:12;103510.66;;;6.23;81.37
38630;BME280;24384;51.988;4.644;2023-02-11T00:46:37;103521.06;;;6.20;82.06
38630;BME280;24384;51.988;4.644;2023-02-11T00:49:02;103514.13;;;6.22;81.89
38630;BME280;24384;51.988;4.644;2023-02-11T00:51:28;103522.81;;;6.21;81.76
38630;BME280;24384;51.988;4.644;2023-02-11T00:53:53;103520.25;;;6.22;81.38
38630;BME280;24384;51.988;4.644;2023-02-11T00:56:19;103529.19;;;6.29;81.29
38630;BME280;24384;51.988;4.644;2023-02-11T00:58:44;103536.09;;;6.27;81.25
38630;BME280;24384;51.988;4.644;2023-02-11T01:01:10;103522.06;;;6.25;81.79
38630;BME280;24384;51.988;4.644;2023-02-11T01:03:36;103522.91;;;6.24;81.41
38630;BME280;24384;51.988;4.644;2023-02-11T01:06:01;103523.00;;;6.27;80.91
38630;BME280;24384;51.988;4.644;2023-02-11T01:08:27;103523.09;;;6.30;81.34
38630;BME280;24384;51.988;4.644;2023-02-11T01:10:54;103535.38;;;6.33;81.03
38630;BME280;24384;51.988;4.644;2023-02-11T01:13:19;103539.88;;;6.37;81.01
38630;BME280;24384;51.988;4.644;2023-02-11T01:15:44;103546.09;;;6.40;80.55
38630;BME280;24384;51.988;4.644;2023-02-11T01:18:09;103535.59;;;6.40;80.58
38630;BME280;24384;51.988;4.644;2023-02-11T01:20:35;103533.72;;;6.36;80.72
38630;BME280;24384;51.988;4.644;2023-02-11T01:23:00;103518.00;;;6.36;81.04
38630;BME280;24384;51.988;4.644;2023-02-11T01:25:26;103510.22;;;6.39;80.66
38630;BME280;24384;51.988;4.644;2023-02-11T01:27:51;103499.69;;;6.38;81.12
38630;BME280;24384;51.988;4.644;2023-02-11T01:30:16;103507.53;;;6.36;80.91
38630;BME280;24384;51.988;4.644;2023-02-11T01:32:43;103505.06;;;6.42;81.16
38630;BME280;24384;51.988;4.644;2023-02-11T01:35:08;103505.84;;;6.38;80.95
38630;BME280;24384;51.988;4.644;2023-02-11T01:37:34;103509.22;;;6.34;81.21
38630;BME280;24384;51.988;4.644;2023-02-11T01:40:00;103507.28;;;6.27;81.79
38630;BME280;24384;51.988;4.644;2023-02-11T01:42:26;103499.31;;;6.24;81.83
38630;BME280;24384;51.988;4.644;2023-02-11T01:44:52;103496.44;;;6.15;82.26
38630;BME280;24384;51.988;4.644;2023-02-11T01:47:20;103508.81;;;6.19;82.17
38630;BME280;24384;51.988;4.644;2023-02-11T01:49:51;103505.22;;;6.15;81.98
38630;BME280;24384;51.988;4.644;2023-02-11T01:52:26;103508.63;;;6.13;82.34
38630;BME280;24384;51.988;4.644;2023-02-11T01:54:59;103511.03;;;6.05;82.60
38630;BME280;24384;51.988;4.644;2023-02-11T01:57:59;103503.03;;;6.00;83.10
38630;BME280;24384;51.988;4.644;2023-02-11T02:00:33;103499.94;;;5.85;83.42
38630;BME280;24384;51.988;4.644;2023-02-11T02:03:21;103511.44;;;5.90;83.67
38630;BME280;24384;51.988;4.644;2023-02-11T02:06:00;103514.06;;;5.90;83.59
38630;BME280;24384;51.988;4.644;2023-02-11T02:08:38;103518.19;;;5.82;83.97
38630;BME280;24384;51.988;4.644;2023-02-11T02:11:05;103514.59;;;5.78;83.84
38630;BME280;24384;51.988;4.644;2023-02-11T02:13:32;103510.19;;;5.77;84.00
38630;BME280;24384;51.988;4.644;2023-02-11T02:16:01;103503.22;;;5.78;83.89
38630;BME280;24384;51.988;4.644;2023-02-11T02:18:35;103505.56;;;5.68;84.61
38630;BME280;24384;51.988;4.644;2023-02-11T02:40:36;103522.03;;;5.64;84.95
38630;BME280;24384;51.988;4.644;2023-02-11T02:43:06;103524.38;;;5.55;85.70
38630;BME280;24384;51.988;4.644;2023-02-11T02:45:33;103513.13;;;5.59;86.65
38630;BME280;24384;51.988;4.644;2023-02-11T02:47:58;103525.25;;;5.55;86.51
38630;BME280;24384;51.988;4.644;2023-02-11T02:50:28;103518.19;;;5.53;86.34
38630;BME280;24384;51.988;4.644;2023-02-11T02:53:10;103526.13;;;5.56;86.11
38630;BME280;24384;51.988;4.644;2023-02-11T02:55:56;103528.66;;;5.53;86.75
38630;BME280;24384;51.988;4.644;2023-02-11T03:01:10;103504.13;;;5.49;86.47
38630;BME280;24384;51.988;4.644;2023-02-11T03:03:59;103501.28;;;5.42;86.63
38630;BME280;24384;51.988;4.644;2023-02-11T03:09:25;103505.25;;;5.29;87.25
38630;BME280;24384;51.988;4.644;2023-02-11T03:11:53;103503.47;;;5.28;87.99
38630;BME280;24384;51.988;4.644;2023-02-11T03:14:21;103495.56;;;5.26;87.98
38630;BME280;24384;51.988;4.644;2023-02-11T03:16:49;103497.41;;;5.29;88.51
38630;BME280;24384;51.988;4.644;2023-02-11T03:19:20;103508.78;;;5.31;88.11
38630;BME280;24384;51.988;4.644;2023-02-11T03:21:48;103503.34;;;5.25;88.01
38630;BME280;24384;51.988;4.644;2023-02-11T03:24:20;103505.69;;;5.15;87.99
38630;BME280;24384;51.988;4.644;2023-02-11T03:26:53;103511.63;;;5.10;87.90
38630;BME280;24384;51.988;4.644;2023-02-11T03:29:49;103505.22;;;5.01;88.19
38630;BME280;24384;51.988;4.644;2023-02-11T03:32:24;103501.50;;;4.93;87.91
38630;BME280;24384;51.988;4.644;2023-02-11T03:37:42;103500.34;;;4.85;87.97
38630;BME280;24384;51.988;4.644;2023-02-11T03:40:12;103495.91;;;4.82;88.34
38630;BME280;24384;51.988;4.644;2023-02-11T03:42:50;103503.50;;;4.75;88.50
38630;BME280;24384;51.988;4.644;2023-02-11T04:02:06;103473.66;;;4.95;90.72
38630;BME280;24384;51.988;4.644;2023-02-11T04:04:31;103473.75;;;4.98;90.73
38630;BME280;24384;51.988;4.644;2023-02-11T04:06:57;103488.75;;;5.04;90.82
38630;BME280;24384;51.988;4.644;2023-02-11T04:09:22;103484.50;;;5.08;90.79
38630;BME280;24384;51.988;4.644;2023-02-11T04:11:47;103489.63;;;5.05;90.32
38630;BME280;24384;51.988;4.644;2023-02-11T04:14:13;103489.84;;;5.11;90.58
38630;BME280;24384;51.988;4.644;2023-02-11T04:16:38;103491.44;;;5.06;90.40
38630;BME280;24384;51.988;4.644;2023-02-11T04:19:03;103488.75;;;5.04;90.62
38630;BME280;24384;51.988;4.644;2023-02-11T04:21:29;103488.03;;;5.08;90.72
38630;BME280;24384;51.988;4.644;2023-02-11T04:23:54;103490.75;;;5.11;90.64
38630;BME280;24384;51.988;4.644;2023-02-11T04:26:19;103479.28;;;5.08;90.61
38630;BME280;24384;51.988;4.644;2023-02-11T04:28:44;103487.94;;;5.05;90.76
38630;BME280;24384;51.988;4.644;2023-02-11T04:31:10;103494.09;;;5.07;91.21
38630;BME280;24384;51.988;4.644;2023-02-11T04:33:36;103483.59;;;5.06;90.88
38630;BME280;24384;51.988;4.644;2023-02-11T04:36:01;103488.09;;;5.10;91.73
38630;BME280;24384;51.988;4.644;2023-02-11T04:38:26;103479.56;;;5.17;91.15
38630;BME280;24384;51.988;4.644;2023-02-11T04:40:51;103489.75;;;5.08;90.97
38630;BME280;24384;51.988;4.644;2023-02-11T04:43:17;103479.31;;;5.09;90.87
38630;BME280;24384;51.988;4.644;2023-02-11T04:45:45;103483.63;;;5.07;91.04
38630;BME280;24384;51.988;4.644;2023-02-11T04:48:11;103481.94;;;5.09;91.41
38630;BME280;24384;51.988;4.644;2023-02-11T04:50:36;103483.78;;;5.12;91.36
38630;BME280;24384;51.988;4.644;2023-02-11T04:53:01;103487.47;;;5.18;91.63
38630;BME280;24384;51.988;4.644;2023-02-11T04:55:26;103472.59;;;5.16;91.70
38630;BME280;24384;51.988;4.644;2023-02-11T04:57:52;103475.25;;;5.17;91.69
38630;BME280;24384;51.988;4.644;2023-02-11T05:00:17;103478.69;;;5.16;91.49
38630;BME280;24384;51.988;4.644;2023-02-11T05:02:42;103474.34;;;5.17;91.92
38630;BME280;24384;51.988;4.644;2023-02-11T05:05:08;103480.44;;;5.16;91.75
38630;BME280;24384;51.988;4.644;2023-02-11T05:07:34;103472.59;;;5.16;92.06
38630;BME280;24384;51.988;4.644;2023-02-11T05:10:00;103475.25;;;5.17;92.33
38630;BME280;24384;51.988;4.644;2023-02-11T05:12:25;103474.25;;;5.14;91.41
38630;BME280;24384;51.988;4.644;2023-02-11T05:14:50;103482.34;;;5.22;92.17
38630;BME280;24384;51.988;4.644;2023-02-11T05:17:15;103485.00;;;5.23;91.98
38630;BME280;24384;51.988;4.644;2023-02-11T05:19:41;103485.13;;;5.28;91.83
38630;BME280;24384;51.988;4.644;2023-02-11T05:22:06;103486.88;;;5.27;92.07
38630;BME280;24384;51.988;4.644;2023-02-11T05:24:32;103484.22;;;5.26;91.97
38630;BME280;24384;51.988;4.644;2023-02-11T05:26:58;103499.03;;;5.25;91.79
38630;BME280;24384;51.988;4.644;2023-02-11T05:29:23;103498.13;;;5.25;92.39
38630;BME280;24384;51.988;4.644;2023-02-11T05:31:48;103496.38;;;5.24;91.85
38630;BME280;24384;51.988;4.644;2023-02-11T05:34:14;103507.66;;;5.23;92.50
38630;BME280;24384;51.988;4.644;2023-02-11T05:36:39;103513.16;;;5.30;92.03
38630;BME280;24384;51.988;4.644;2023-02-11T05:39:05;103506.06;;;5.28;91.91
38630;BME280;24384;51.988;4.644;2023-02-11T05:41:30;103513.16;;;5.30;91.95
38630;BME280;24384;51.988;4.644;2023-02-11T05:43:55;103508.59;;;5.25;91.72
38630;BME280;24384;51.988;4.644;2023-02-11T05:46:20;103500.88;;;5.29;92.26
38630;BME280;24384;51.988;4.644;2023-02-11T05:48:46;103499.97;;;5.27;92.19
38630;BME280;24384;51.988;4.644;2023-02-11T05:51:11;103500.53;;;5.18;91.92
38630;BME280;24384;51.988;4.644;2023-02-11T05:53:36;103504.28;;;5.25;92.37
38630;BME280;24384;51.988;4.644;2023-02-11T05:56:02;103500.59;;;5.20;92.22
38630;BME280;24384;51.988;4.644;2023-02-11T05:58:27;103502.53;;;5.26;91.84
38630;BME280;24384;51.988;4.644;2023-02-11T06:00:52;103498.31;;;5.31;92.22
38630;BME280;24384;51.988;4.644;2023-02-11T06:03:18;103506.94;;;5.27;91.88
38630;BME280;24384;51.988;4.644;2023-02-11T06:05:44;103504.06;;;5.19;92.38
38630;BME280;24384;51.988;4.644;2023-02-11T06:08:09;103499.97;;;5.27;91.58
38630;BME280;24384;51.988;4.644;2023-02-11T06:10:35;103496.63;;;5.33;91.68
38630;BME280;24384;51.988;4.644;2023-02-11T06:13:01;103501.66;;;5.25;91.69
38630;BME280;24384;51.988;4.644;2023-02-11T06:15:26;103496.41;;;5.25;92.76
38630;BME280;24384;51.988;4.644;2023-02-11T06:17:51;103512.84;;;5.21;92.86
38630;BME280;24384;51.988;4.644;2023-02-11T06:20:16;103508.63;;;5.26;92.73
38630;BME280;24384;51.988;4.644;2023-02-11T06:22:42;103513.16;;;5.30;92.91
38630;BME280;24384;51.988;4.644;2023-02-11T06:25:07;103508.00;;;5.33;92.89
38630;BME280;24384;51.988;4.644;2023-02-11T06:27:33;103511.34;;;5.29;92.67
38630;BME280;24384;51.988;4.644;2023-02-11T06:29:58;103506.22;;;5.32;92.17
38630;BME280;24384;51.988;4.644;2023-02-11T06:32:23;103512.22;;;5.30;92.36
38630;BME280;24384;51.988;4.644;2023-02-11T06:34:50;103507.53;;;5.18;92.76
38630;BME280;24384;51.988;4.644;2023-02-11T06:37:15;103503.97;;;5.16;93.28
38630;BME280;24384;51.988;4.644;2023-02-11T06:39:43;103510.03;;;5.15;93.13
38630;BME280;24384;51.988;4.644;2023-02-11T06:42:08;103511.16;;;5.23;93.04
38630;BME280;24384;51.988;4.644;2023-02-11T06:44:33;103519.88;;;5.22;93.28
38630;BME280;24384;51.988;4.644;2023-02-11T06:46:59;103521.63;;;5.23;93.57
38630;BME280;24384;51.988;4.644;2023-02-11T06:49:24;103516.28;;;5.20;93.44
38630;BME280;24384;51.988;4.644;2023-02-11T06:51:49;103518.91;;;5.20;93.71
38630;BME280;24384;51.988;4.644;2023-02-11T06:54:14;103518.97;;;5.22;93.33
38630;BME280;24384;51.988;4.644;2023-02-11T06:56:40;103518.72;;;5.14;93.83
38630;BME280;24384;51.988;4.644;2023-02-11T06:59:06;103524.03;;;5.17;93.35
38630;BME280;24384;51.988;4.644;2023-02-11T07:01:31;103519.66;;;5.16;93.71
38630;BME280;24384;51.988;4.644;2023-02-11T07:03:57;103532.56;;;5.10;94.02
38630;BME280;24384;51.988;4.644;2023-02-11T07:06:24;103524.81;;;5.13;93.46
38630;BME280;24384;51.988;4.644;2023-02-11T07:08:51;103528.19;;;5.10;92.62
38630;BME280;24384;51.988;4.644;2023-02-11T07:11:22;103536.00;;;5.09;92.79
38630;BME280;24384;51.988;4.644;2023-02-11T07:13:49;103532.97;;;4.96;92.90
38630;BME280;24384;51.988;4.644;2023-02-11T07:16:16;103528.97;;;5.08;92.66
38630;BME280;24384;51.988;4.644;2023-02-11T07:18:42;103536.72;;;5.05;92.55
38630;BME280;24384;51.988;4.644;2023-02-11T07:21:13;103535.78;;;5.02;92.64
38630;BME280;24384;51.988;4.644;2023-02-11T07:23:39;103539.28;;;5.03;92.56
38630;BME280;24384;51.988;4.644;2023-02-11T07:26:13;103542.41;;;4.91;92.73
38630;BME280;24384;51.988;4.644;2023-02-11T07:28:39;103536.53;;;4.98;93.38
38630;BME280;24384;51.988;4.644;2023-02-11T07:31:12;103528.78;;;5.01;93.41
38630;BME280;24384;51.988;4.644;2023-02-11T07:33:38;103539.44;;;5.08;93.07
38630;BME280;24384;51.988;4.644;2023-02-11T07:36:05;103553.63;;;5.14;93.15
38630;BME280;24384;51.988;4.644;2023-02-11T07:38:32;103548.56;;;5.19;93.44
38630;BME280;24384;51.988;4.644;2023-02-11T07:41:02;103550.56;;;5.28;93.33
38630;BME280;24384;51.988;4.644;2023-02-11T07:43:28;103556.88;;;5.34;93.28
38630;BME280;24384;51.988;4.644;2023-02-11T07:45:54;103556.22;;;5.42;93.31
38630;BME280;24384;51.988;4.644;2023-02-11T07:48:20;103552.88;;;5.46;93.70
38630;BME280;24384;51.988;4.644;2023-02-11T07:50:45;103551.19;;;5.48;93.40
38630;BME280;24384;51.988;4.644;2023-02-11T07:53:10;103554.78;;;5.51;93.18
38630;BME280;24384;51.988;4.644;2023-02-11T07:55:36;103558.41;;;5.55;93.26
38630;BME280;24384;51.988;4.644;2023-02-11T07:58:01;103569.03;;;5.60;93.23
38630;BME280;24384;51.988;4.644;2023-02-11T08:00:27;103558.88;;;5.70;93.00
38630;BME280;24384;51.988;4.644;2023-02-11T08:02:52;103565.06;;;5.72;93.41
38630;BME280;24384;51.988;4.644;2023-02-11T08:05:17;103567.81;;;5.77;93.20
38630;BME280;24384;51.988;4.644;2023-02-11T08:07:42;103559.25;;;5.83;92.67
38630;BME280;24384;51.988;4.644;2023-02-11T08:10:09;103571.63;;;5.88;92.35
38630;BME280;24384;51.988;4.644;2023-02-11T08:12:34;103576.31;;;5.97;92.30
38630;BME280;24384;51.988;4.644;2023-02-11T08:14:59;103575.53;;;6.00;91.91
38630;BME280;24384;51.988;4.644;2023-02-11T08:17:24;103581.59;;;5.99;90.96
38630;BME280;24384;51.988;4.644;2023-02-11T08:19:52;103579.50;;;5.88;90.73
38630;BME280;24384;51.988;4.644;2023-02-11T08:22:18;103575.25;;;5.92;90.79
38630;BME280;24384;51.988;4.644;2023-02-11T08:24:43;103576.91;;;5.90;91.07
38630;BME280;24384;51.988;4.644;2023-02-11T08:27:08;103584.97;;;5.96;90.40
38630;BME280;24384;51.988;4.644;2023-02-11T08:29:33;103584.03;;;5.94;91.02
38630;BME280;24384;51.988;4.644;2023-02-11T08:31:59;103589.09;;;5.88;91.17
38630;BME280;24384;51.988;4.644;2023-02-11T08:34:24;103595.16;;;5.87;91.01
38630;BME280;24384;51.988;4.644;2023-02-11T08:36:49;103601.50;;;5.94;91.14
38630;BME280;24384;51.988;4.644;2023-02-11T08:39:17;103607.88;;;6.02;91.44
38630;BME280;24384;51.988;4.644;2023-02-11T08:41:43;103606.13;;;6.02;91.14
38630;BME280;24384;51.988;4.644;2023-02-11T08:44:08;103603.66;;;6.07;91.19
38630;BME280;24384;51.988;4.644;2023-02-11T08:46:34;103606.22;;;6.05;91.28
38630;BME280;24384;51.988;4.644;2023-02-11T08:49:00;103604.66;;;6.11;91.70
38630;BME280;24384;51.988;4.644;2023-02-11T08:51:27;103610.78;;;6.11;91.73
38630;BME280;24384;51.988;4.644;2023-02-11T08:53:54;103612.44;;;6.07;92.16
38630;BME280;24384;51.988;4.644;2023-02-11T08:56:21;103613.41;;;6.11;92.00
38630;BME280;24384;51.988;4.644;2023-02-11T08:58:47;103614.41;;;6.16;91.96
38630;BME280;24384;51.988;4.644;2023-02-11T09:01:22;103607.56;;;6.20;92.07
38630;BME280;24384;51.988;4.644;2023-02-11T09:03:48;103600.38;;;6.14;92.22
38630;BME280;24384;51.988;4.644;2023-02-11T09:06:13;103612.97;;;6.26;91.79
38630;BME280;24384;51.988;4.644;2023-02-11T09:08:41;103613.28;;;6.37;91.45
38630;BME280;24384;51.988;4.644;2023-02-11T09:11:07;103606.16;;;6.33;91.89
38630;BME280;24384;51.988;4.644;2023-02-11T09:13:33;103619.38;;;6.36;91.52
38630;BME280;24384;51.988;4.644;2023-02-11T09:16:00;103612.50;;;6.41;91.53
38630;BME280;24384;51.988;4.644;2023-02-11T09:18:26;103614.16;;;6.37;91.84
38630;BME280;24384;51.988;4.644;2023-02-11T09:20:52;103613.34;;;6.38;91.54
38630;BME280;24384;51.988;4.644;2023-02-11T09:23:18;103619.66;;;6.47;91.55
38630;BME280;24384;51.988;4.644;2023-02-11T09:25:43;103620.00;;;6.59;91.31
38630;BME280;24384;51.988;4.644;2023-02-11T09:28:08;103618.19;;;6.56;91.60
38630;BME280;24384;51.988;4.644;2023-02-11T09:30:35;103615.13;;;6.71;91.21
38630;BME280;24384;51.988;4.644;2023-02-11T09:33:01;103624.78;;;6.72;91.24
38630;BME280;24384;51.988;4.644;2023-02-11T09:35:26;103619.78;;;6.81;91.28
38630;BME280;24384;51.988;4.644;2023-02-11T09:37:52;103625.63;;;7.05;90.94
38630;BME280;24384;51.988;4.644;2023-02-11T09:40:17;103623.06;;;7.06;91.11
38630;BME280;24384;51.988;4.644;2023-02-11T09:42:50;103625.16;;;7.21;90.16
38630;BME280;24384;51.988;4.644;2023-02-11T09:45:26;103629.78;;;7.30;89.74
38630;BME280;24384;51.988;4.644;2023-02-11T09:47:57;103628.94;;;7.31;89.69
38630;BME280;24384;51.988;4.644;2023-02-11T09:50:35;103631.78;;;7.40;89.33
38630;BME280;24384;51.988;4.644;2023-02-11T09:53:10;103628.25;;;7.40;89.08
38630;BME280;24384;51.988;4.644;2023-02-11T09:55:40;103625.66;;;7.41;88.86
38630;BME280;24384;51.988;4.644;2023-02-11T09:58:12;103616.00;;;7.39;89.04
38630;BME280;24384;51.988;4.644;2023-02-11T10:06:31;103633.38;;;7.70;87.65
38630;BME280;24384;51.988;4.644;2023-02-11T10:11:54;103640.84;;;7.89;87.20
38630;BME280;24384;51.988;4.644;2023-02-11T10:19:37;103652.50;;;8.02;85.98
38630;BME280;24384;51.988;4.644;2023-02-11T10:22:50;103656.19;;;8.11;85.38
38630;BME280;24384;51.988;4.644;2023-02-11T10:24:57;103655.41;;;8.15;85.73
38630;BME280;24384;51.988;4.644;2023-02-11T10:27:30;103664.31;;;8.21;85.27
38630;BME280;24384;51.988;4.644;2023-02-11T10:30:15;103666.78;;;8.15;85.24
38630;BME280;24384;51.988;4.644;2023-02-11T10:32:51;103667.75;;;8.17;85.34
38630;BME280;24384;51.988;4.644;2023-02-11T10:35:21;103665.19;;;8.20;85.08
38630;BME280;24384;51.988;4.644;2023-02-11T10:37:47;103669.63;;;8.24;85.18
38630;BME280;24384;51.988;4.644;2023-02-11T10:40:19;103669.75;;;8.31;84.44
38630;BME280;24384;51.988;4.644;2023-02-11T10:42:48;103676.91;;;8.36;84.90
38630;BME280;24384;51.988;4.644;2023-02-11T10:45:18;103675.28;;;8.43;85.04
38630;BME280;24384;51.988;4.644;2023-02-11T10:47:46;103686.34;;;8.68;83.79
38630;BME280;24384;51.988;4.644;2023-02-11T10:52:47;103696.94;;;8.71;82.35
38630;BME280;24384;51.988;4.644;2023-02-11T10:55:21;103702.28;;;8.75;82.99
38630;BME280;24384;51.988;4.644;2023-02-11T10:57:59;103700.94;;;8.94;82.14
38630;BME280;24384;51.988;4.644;2023-02-11T11:03:04;103701.03;;;8.99;81.83
38630;BME280;24384;51.988;4.644;2023-02-11T11:05:45;103702.56;;;8.89;82.41
38630;BME280;24384;51.988;4.644;2023-02-11T11:08:11;103695.81;;;9.02;81.58
38630;BME280;24384;51.988;4.644;2023-02-11T11:10:41;103706.25;;;8.98;81.38
38630;BME280;24384;51.988;4.644;2023-02-11T11:13:30;103698.13;;;8.85;81.75
38630;BME280;24384;51.988;4.644;2023-02-11T11:18:38;103700.16;;;9.00;81.50
38630;BME280;24384;51.988;4.644;2023-02-11T11:23:38;103708.25;;;9.11;79.69
38630;BME280;24384;51.988;4.644;2023-02-11T11:26:07;103711.00;;;9.17;79.35
38630;BME280;24384;51.988;4.644;2023-02-11T11:29:37;103704.78;;;9.12;79.57
38630;BME280;24384;51.988;4.644;2023-02-11T11:31:56;103695.97;;;9.10;79.08
38630;BME280;24384;51.988;4.644;2023-02-11T11:34:37;103714.34;;;9.07;78.88
38630;BME280;24384;51.988;4.644;2023-02-11T11:39:35;103705.50;;;9.05;79.38
38630;BME280;24384;51.988;4.644;2023-02-11T11:42:23;103693.16;;;9.01;79.08
38630;BME280;24384;51.988;4.644;2023-02-11T11:45:15;103706.28;;;8.99;78.52
38630;BME280;24384;51.988;4.644;2023-02-11T11:50:29;103702.69;;;8.95;78.74
38630;BME280;24384;51.988;4.644;2023-02-11T11:53:04;103707.16;;;9.00;79.14
38630;BME280;24384;51.988;4.644;2023-02-11T11:55:40;103706.19;;;8.94;79.34
38630;BME280;24384;51.988;4.644;2023-02-11T11:58:16;103706.25;;;8.98;78.74
38630;BME280;24384;51.988;4.644;2023-02-11T12:04:09;103710.03;;;9.12;78.65
38630;BME280;24384;51.988;4.644;2023-02-11T12:06:55;103712.75;;;9.17;78.65
38630;BME280;24384;51.988;4.644;2023-02-11T12:12:20;103715.41;;;9.18;78.74
38630;BME280;24384;51.988;4.644;2023-02-11T12:20:20;103710.16;;;9.18;78.27
38630;BME280;24384;51.988;4.644;2023-02-11T12:23:00;103708.50;;;9.25;78.02
38630;BME280;24384;51.988;4.644;2023-02-11T12:25:35;103715.59;;;9.27;78.93
38630;BME280;24384;51.988;4.644;2023-02-11T12:28:29;103709.41;;;9.25;78.09
38630;BME280;24384;51.988;4.644;2023-02-11T12:31:20;103707.66;;;9.26;78.04
38630;BME280;24384;51.988;4.644;2023-02-11T12:48:15;103694.94;;;9.52;77.02
38630;BME280;24384;51.988;4.644;2023-02-11T12:51:17;103701.44;;;9.74;75.99
38630;BME280;24384;51.988;4.644;2023-02-11T12:54:11;103699.91;;;9.85;75.36
38630;BME280;24384;51.988;4.644;2023-02-11T13:02:43;103707.69;;;9.78;74.95
38630;BME280;24384;51.988;4.644;2023-02-11T13:05:36;103697.25;;;9.85;74.45
38630;BME280;24384;51.988;4.644;2023-02-11T13:08:08;103694.66;;;9.89;74.48
38630;BME280;24384;51.988;4.644;2023-02-11T13:10:39;103703.38;;;9.84;75.07
38630;BME280;24384;51.988;4.644;2023-02-11T13:13:21;103694.75;;;9.95;74.22
38630;BME280;24384;51.988;4.644;2023-02-11T13:16:05;103685.13;;;9.98;74.03
38630;BME280;24384;51.988;4.644;2023-02-11T13:18:51;103695.72;;;10.01;73.43
38630;BME280;24384;51.988;4.644;2023-02-11T13:21:45;103684.38;;;10.06;73.90
38630;BME280;24384;51.988;4.644;2023-02-11T13:24:41;103675.66;;;10.13;74.11
38630;BME280;24384;51.988;4.644;2023-02-11T13:30:23;103684.59;;;10.21;73.21
38630;BME280;24384;51.988;4.644;2023-02-11T13:35:33;103686.06;;;10.02;73.55
38630;BME280;24384;51.988;4.644;2023-02-11T13:38:02;103687.81;;;10.01;73.54
38630;BME280;24384;51.988;4.644;2023-02-11T13:40:32;103692.09;;;9.93;74.27
38630;BME280;24384;51.988;4.644;2023-02-11T13:43:00;103683.97;;;9.78;74.38
38630;BME280;24384;51.988;4.644;2023-02-11T13:45:45;103687.34;;;9.71;74.87
38630;BME280;24384;51.988;4.644;2023-02-11T13:48:20;103678.72;;;9.79;73.79
38630;BME280;24384;51.988;4.644;2023-02-11T13:50:49;103672.53;;;9.79;75.07
38630;BME280;24384;51.988;4.644;2023-02-11T13:53:16;103668.25;;;9.85;74.41
38630;BME280;24384;51.988;4.644;2023-02-11T13:55:45;103663.81;;;9.83;74.66
38630;BME280;24384;51.988;4.644;2023-02-11T14:00:49;103671.81;;;9.89;74.52
38630;BME280;24384;51.988;4.644;2023-02-11T14:03:23;103671.06;;;9.96;74.27
38630;BME280;24384;51.988;4.644;2023-02-11T14:11:43;103680.66;;;9.94;74.07
38630;BME280;24384;51.988;4.644;2023-02-11T14:14:21;103684.38;;;10.06;73.64
38630;BME280;24384;51.988;4.644;2023-02-11T14:19:39;103690.53;;;10.06;73.14
38630;BME280;24384;51.988;4.644;2023-02-11T14:22:12;103686.19;;;10.11;71.77
38630;BME280;24384;51.988;4.644;2023-02-11T14:24:59;103690.44;;;10.00;72.61
38630;BME280;24384;51.988;4.644;2023-02-11T14:30:51;103675.53;;;10.03;72.49
38630;BME280;24384;51.988;4.644;2023-02-11T14:36:06;103673.72;;;9.98;72.57
38630;BME280;24384;51.988;4.644;2023-02-11T14:38:44;103685.22;;;10.04;73.08
38630;BME280;24384;51.988;4.644;2023-02-11T14:41:19;103682.38;;;9.91;73.02
38630;BME280;24384;51.988;4.644;2023-02-11T14:43:50;103685.03;;;9.92;73.15
38630;BME280;24384;51.988;4.644;2023-02-11T14:46:18;103697.41;;;9.96;73.28
38630;BME280;24384;51.988;4.644;2023-02-11T14:48:46;103697.50;;;10.01;72.04
38630;BME280;24384;51.988;4.644;2023-02-11T14:51:24;103707.06;;;9.96;72.33
38630;BME280;24384;51.988;4.644;2023-02-11T14:53:55;103705.22;;;9.89;72.03
38630;BME280;24384;51.988;4.644;2023-02-11T14:56:26;103706.13;;;9.92;71.80
38630;BME280;24384;51.988;4.644;2023-02-11T14:58:53;103709.66;;;9.93;71.44
38630;BME280;24384;51.988;4.644;2023-02-11T15:01:30;103700.84;;;9.91;71.82
38630;BME280;24384;51.988;4.644;2023-02-11T15:04:03;103704.25;;;9.85;72.20
38630;BME280;24384;51.988;4.644;2023-02-11T15:06:39;103706.78;;;9.79;73.03
38630;BME280;24384;51.988;4.644;2023-02-11T15:11:40;103705.84;;;9.74;72.72
38630;BME280;24384;51.988;4.644;2023-02-11T15:14:21;103702.31;;;9.72;73.08
38630;BME280;24384;51.988;4.644;2023-02-11T15:16:48;103709.06;;;9.57;73.30
38630;BME280;24384;51.988;4.644;2023-02-11T15:19:20;103706.47;;;9.59;73.24
38630;BME280;24384;51.988;4.644;2023-02-11T15:21:47;103709.97;;;9.56;73.15
38630;BME280;24384;51.988;4.644;2023-02-11T15:24:23;103710.75;;;9.52;72.85